createdAt,value
2023-04-20T00:00:01.137Z,5.9
2023-04-20T00:01:01.121Z,5.8
2023-04-20T00:02:01.122Z,5.8
2023-04-20T00:03:01.296Z,5.8
2023-04-20T00:04:02.033Z,5.8
2023-04-20T00:05:02.543Z,5.8
2023-04-20T00:06:02.450Z,5.8
2023-04-20T00:07:01.306Z,5.8
2023-04-20T00:08:01.944Z,5.8
2023-04-20T00:09:01.914Z,5.8
2023-04-20T00:10:01.026Z,5.8
2023-04-20T00:11:01.048Z,5.8
2023-04-20T00:12:01.042Z,5.8
2023-04-20T00:13:01.071Z,5.8
2023-04-20T00:14:00.709Z,5.8
2023-04-20T00:15:00.307Z,5.9
2023-04-20T00:15:59.919Z,5.8
2023-04-20T00:16:59.525Z,5.8
2023-04-20T00:18:01.167Z,5.8
2023-04-20T00:19:01.852Z,5.8
2023-04-20T00:20:01.060Z,5.8
2023-04-20T00:21:01.032Z,5.8
2023-04-20T00:22:01.046Z,5.8
2023-04-20T00:23:01.039Z,5.8
2023-04-20T00:24:01.036Z,5.8
2023-04-20T00:25:01.042Z,5.8
2023-04-20T00:26:00.692Z,5.8
2023-04-20T00:27:00.340Z,5.8
2023-04-20T00:27:59.961Z,5.8
2023-04-20T00:28:59.667Z,5.8
2023-04-20T00:30:01.683Z,5.8
2023-04-20T00:31:01.716Z,5.8
2023-04-20T00:32:01.653Z,5.8
2023-04-20T00:33:01.727Z,5.8
2023-04-20T00:34:01.032Z,5.9
2023-04-20T00:35:01.474Z,5.8
2023-04-20T00:36:01.740Z,5.8
2023-04-20T00:37:01.074Z,5.8
2023-04-20T00:38:01.035Z,5.8
2023-04-20T00:39:01.047Z,5.8
2023-04-20T00:40:01.062Z,5.8
2023-04-20T00:41:01.052Z,5.8
2023-04-20T00:42:01.025Z,5.8
2023-04-20T00:43:01.028Z,5.8
2023-04-20T00:44:01.117Z,5.8
2023-04-20T00:45:01.405Z,5.8
2023-04-20T00:46:04.126Z,5.8
2023-04-20T00:47:01.026Z,5.8
2023-04-20T00:48:01.080Z,5.8
2023-04-20T00:49:01.019Z,5.8
2023-04-20T00:50:01.052Z,5.8
2023-04-20T00:51:01.023Z,5.8
2023-04-20T00:52:01.072Z,5.8
2023-04-20T00:53:01.483Z,5.8
2023-04-20T00:54:01.788Z,5.8
2023-04-20T00:55:01.147Z,5.8
2023-04-20T00:56:01.114Z,5.8
2023-04-20T00:57:04.293Z,5.8
2023-04-20T00:58:02.451Z,5.8
2023-04-20T00:59:01.150Z,5.7
2023-04-20T01:00:01.043Z,5.7
2023-04-20T01:01:01.062Z,5.6
2023-04-20T01:02:04.772Z,5.6
2023-04-20T01:03:02.002Z,5.6
2023-04-20T01:04:01.715Z,5.6
2023-04-20T01:05:01.412Z,5.6
2023-04-20T01:06:02.684Z,5.6
2023-04-20T01:07:08.186Z,5.6
2023-04-20T01:08:01.691Z,5.6
2023-04-20T01:09:01.760Z,5.6
2023-04-20T01:10:01.669Z,5.6
2023-04-20T01:11:01.701Z,5.6
2023-04-20T01:12:10.988Z,5.5
2023-04-20T01:13:01.402Z,5.5
2023-04-20T01:14:01.079Z,5.5
2023-04-20T01:15:01.022Z,5.5
2023-04-20T01:16:01.068Z,5.5
2023-04-20T01:17:13.936Z,5.5
2023-04-20T01:18:03.169Z,5.5
2023-04-20T01:19:01.058Z,5.5
2023-04-20T01:20:01.458Z,5.5
2023-04-20T01:21:01.137Z,5.5
2023-04-20T01:22:01.029Z,5.5
2023-04-20T01:23:01.049Z,5.5
2023-04-20T01:24:00.625Z,5.5
2023-04-20T01:25:00.251Z,5.4
2023-04-20T01:25:59.886Z,5.4
2023-04-20T01:26:59.438Z,5.4
2023-04-20T01:28:04.650Z,5.4
2023-04-20T01:29:02.169Z,5.4
2023-04-20T01:30:02.428Z,5.4
2023-04-20T01:31:01.088Z,5.4
2023-04-20T01:32:01.026Z,5.3
2023-04-20T01:33:01.105Z,5.3
2023-04-20T01:34:01.028Z,5.4
2023-04-20T01:35:01.049Z,5.4
2023-04-20T01:36:01.035Z,5.4
2023-04-20T01:37:01.030Z,5.3
2023-04-20T01:38:02.149Z,5.3
2023-04-20T01:39:01.870Z,5.3
2023-04-20T01:40:01.877Z,5.3
2023-04-20T01:41:01.853Z,5.3
2023-04-20T01:42:02.359Z,5.3
2023-04-20T01:43:03.462Z,5.3
2023-04-20T01:44:02.084Z,5.3
2023-04-20T01:45:01.669Z,5.3
2023-04-20T01:46:01.047Z,5.3
2023-04-20T01:47:01.217Z,5.3
2023-04-20T01:48:01.088Z,5.3
2023-04-20T01:49:00.997Z,5.3
2023-04-20T01:50:01.419Z,5.3
2023-04-20T01:51:01.037Z,5.3
2023-04-20T01:52:01.031Z,5.3
2023-04-20T01:53:01.026Z,5.3
2023-04-20T01:54:01.032Z,5.3
2023-04-20T01:55:01.140Z,5.3
2023-04-20T01:56:01.025Z,5.3
2023-04-20T01:57:01.022Z,5.3
2023-04-20T01:58:01.074Z,5.3
2023-04-20T01:59:01.270Z,5.3
2023-04-20T02:00:01.014Z,5.3
2023-04-20T02:01:01.064Z,5.2
2023-04-20T02:02:01.650Z,5.2
2023-04-20T02:03:01.146Z,5.1
2023-04-20T02:04:02.639Z,5.1
2023-04-20T02:05:01.942Z,5.1
2023-04-20T02:06:01.064Z,5.1
2023-04-20T02:07:01.033Z,5
2023-04-20T02:08:01.449Z,5
2023-04-20T02:09:01.151Z,5
2023-04-20T02:10:01.958Z,5
2023-04-20T02:11:01.162Z,4.9
2023-04-20T02:12:01.063Z,4.9
2023-04-20T02:13:01.102Z,4.8
2023-04-20T02:14:02.553Z,4.8
2023-04-20T02:15:01.029Z,4.8
2023-04-20T02:16:01.246Z,4.9
2023-04-20T02:17:01.369Z,4.9
2023-04-20T02:18:01.571Z,4.9
2023-04-20T02:19:02.209Z,4.9
2023-04-20T02:20:01.703Z,4.9
2023-04-20T02:21:01.857Z,4.8
2023-04-20T02:22:01.854Z,4.8
2023-04-20T02:23:01.683Z,4.8
2023-04-20T02:24:01.892Z,4.7
2023-04-20T02:25:01.422Z,4.7
2023-04-20T02:26:04.089Z,4.6
2023-04-20T02:27:01.143Z,4.6
2023-04-20T02:28:01.066Z,4.6
2023-04-20T02:29:01.030Z,4.6
2023-04-20T02:30:01.017Z,4.6
2023-04-20T02:31:01.130Z,4.6
2023-04-20T02:32:01.023Z,4.6
2023-04-20T02:33:01.210Z,4.6
2023-04-20T02:34:01.410Z,4.6
2023-04-20T02:35:00.891Z,4.6
2023-04-20T02:36:01.059Z,4.5
2023-04-20T02:37:01.029Z,4.5
2023-04-20T02:38:01.026Z,4.5
2023-04-20T02:39:01.036Z,4.5
2023-04-20T02:40:01.028Z,4.5
2023-04-20T02:41:01.042Z,4.5
2023-04-20T02:42:01.753Z,4.5
2023-04-20T02:43:02.095Z,4.5
2023-04-20T02:44:02.478Z,4.4
2023-04-20T02:45:01.038Z,4.5
2023-04-20T02:46:01.842Z,4.4
2023-04-20T02:47:01.031Z,4.4
2023-04-20T02:48:04.249Z,4.4
2023-04-20T02:49:01.551Z,4.4
2023-04-20T02:50:01.679Z,4.4
2023-04-20T02:51:02.460Z,4.4
2023-04-20T02:52:01.342Z,4.4
2023-04-20T02:53:06.999Z,4.4
2023-04-20T02:54:02.671Z,4.4
2023-04-20T02:55:01.034Z,4.4
2023-04-20T02:56:01.032Z,4.4
2023-04-20T02:57:01.025Z,4.4
2023-04-20T02:58:10.896Z,4.4
2023-04-20T02:59:01.412Z,4.5
2023-04-20T03:00:01.749Z,4.5
2023-04-20T03:01:01.047Z,4.5
2023-04-20T03:02:01.113Z,4.5
2023-04-20T03:03:15.713Z,4.5
2023-04-20T03:04:01.351Z,4.5
2023-04-20T03:05:01.302Z,4.5
2023-04-20T03:06:02.452Z,4.5
2023-04-20T03:07:01.524Z,4.5
2023-04-20T03:08:01.046Z,4.5
2023-04-20T03:09:01.036Z,4.5
2023-04-20T03:10:01.096Z,4.5
2023-04-20T03:11:01.015Z,4.4
2023-04-20T03:12:01.045Z,4.4
2023-04-20T03:13:01.029Z,4.4
2023-04-20T03:14:01.460Z,4.4
2023-04-20T03:15:01.044Z,4.4
2023-04-20T03:16:01.034Z,4.4
2023-04-20T03:17:01.033Z,4.4
2023-04-20T03:18:01.181Z,4.4
2023-04-20T03:19:01.428Z,4.4
2023-04-20T03:20:02.109Z,4.4
2023-04-20T03:21:01.033Z,4.4
2023-04-20T03:22:01.232Z,4.4
2023-04-20T03:23:01.028Z,4.4
2023-04-20T03:24:01.043Z,4.4
2023-04-20T03:25:01.357Z,4.4
2023-04-20T03:26:01.036Z,4.4
2023-04-20T03:27:01.039Z,4.3
2023-04-20T03:28:01.051Z,4.3
2023-04-20T03:29:01.421Z,4.3
2023-04-20T03:30:01.179Z,4.3
2023-04-20T03:31:02.684Z,4.3
2023-04-20T03:32:01.074Z,4.3
2023-04-20T03:33:01.113Z,4.3
2023-04-20T03:34:01.025Z,4.3
2023-04-20T03:35:01.708Z,4.3
2023-04-20T03:36:01.016Z,4.3
2023-04-20T03:37:01.038Z,4.3
2023-04-20T03:38:01.086Z,4.3
2023-04-20T03:39:01.057Z,4.3
2023-04-20T03:40:01.032Z,4.3
2023-04-20T03:41:01.008Z,4.3
2023-04-20T03:42:01.024Z,4.3
2023-04-20T03:43:01.020Z,4.3
2023-04-20T03:44:01.050Z,4.3
2023-04-20T03:45:01.930Z,4.3
2023-04-20T03:46:01.390Z,4.2
2023-04-20T03:47:01.167Z,4.2
2023-04-20T03:48:01.079Z,4.1
2023-04-20T03:49:01.755Z,4.1
2023-04-20T03:50:01.034Z,4.1
2023-04-20T03:51:01.019Z,4.1
2023-04-20T03:52:01.032Z,4.1
2023-04-20T03:53:01.121Z,4.1
2023-04-20T03:54:01.461Z,4.1
2023-04-20T03:55:00.875Z,4.1
2023-04-20T03:56:00.509Z,4.1
2023-04-20T03:57:00.125Z,4.1
2023-04-20T03:57:59.813Z,4.1
2023-04-20T03:59:01.871Z,4.1
2023-04-20T04:00:01.697Z,4.1
2023-04-20T04:01:01.037Z,4.1
2023-04-20T04:02:01.083Z,4.1
2023-04-20T04:03:01.642Z,4.1
2023-04-20T04:04:02.011Z,4.1
2023-04-20T04:05:01.535Z,4.1
2023-04-20T04:06:01.252Z,4.1
2023-04-20T04:07:02.234Z,4.2
2023-04-20T04:08:02.038Z,4.2
2023-04-20T04:09:01.838Z,4.3
2023-04-20T04:10:01.034Z,4.3
2023-04-20T04:11:01.033Z,4.3
2023-04-20T04:12:01.040Z,4.3
2023-04-20T04:13:01.236Z,4.3
2023-04-20T04:14:01.678Z,4.3
2023-04-20T04:15:01.297Z,4.3
2023-04-20T04:16:01.291Z,4.3
2023-04-20T04:17:01.371Z,4.3
2023-04-20T04:18:02.092Z,4.3
2023-04-20T04:19:01.030Z,4.3
2023-04-20T04:20:01.015Z,4.3
2023-04-20T04:21:01.041Z,4.4
2023-04-20T04:22:01.032Z,4.4
2023-04-20T04:23:01.033Z,4.4
2023-04-20T04:24:01.017Z,4.5
2023-04-20T04:25:01.429Z,4.5
2023-04-20T04:26:01.131Z,4.5
2023-04-20T04:27:00.765Z,4.5
2023-04-20T04:28:00.313Z,4.5
2023-04-20T04:29:03.299Z,4.5
2023-04-20T04:30:01.046Z,4.5
2023-04-20T04:31:01.076Z,4.5
2023-04-20T04:32:00.602Z,4.5
2023-04-20T04:33:00.192Z,4.5
2023-04-20T04:34:05.395Z,4.5
2023-04-20T04:35:03.929Z,4.4
2023-04-20T04:36:02.191Z,4.4
2023-04-20T04:37:01.020Z,4.4
2023-04-20T04:38:01.068Z,4.4
2023-04-20T04:39:09.032Z,4.4
2023-04-20T04:40:01.030Z,4.4
2023-04-20T04:41:01.047Z,4.4
2023-04-20T04:42:03.021Z,4.5
2023-04-20T04:43:01.286Z,4.5
2023-04-20T04:44:11.802Z,4.5
2023-04-20T04:45:00.867Z,4.5
2023-04-20T04:46:01.064Z,4.5
2023-04-20T04:47:00.592Z,4.5
2023-04-20T04:48:00.211Z,4.5
2023-04-20T04:49:13.911Z,4.5
2023-04-20T04:50:02.460Z,4.6
2023-04-20T04:51:01.111Z,4.6
2023-04-20T04:52:01.128Z,4.5
2023-04-20T04:53:01.151Z,4.5
2023-04-20T04:54:16.655Z,4.5
2023-04-20T04:55:01.770Z,4.5
2023-04-20T04:56:01.206Z,4.5
2023-04-20T04:57:01.845Z,4.5
2023-04-20T04:58:01.034Z,4.5
2023-04-20T04:59:01.045Z,4.5
2023-04-20T05:00:01.026Z,4.5
2023-04-20T05:01:01.126Z,4.5
2023-04-20T05:02:01.836Z,4.5
2023-04-20T05:03:04.045Z,4.5
2023-04-20T05:04:01.378Z,4.6
2023-04-20T05:05:01.839Z,4.6
2023-04-20T05:06:01.022Z,4.6
2023-04-20T05:07:00.630Z,4.5
2023-04-20T05:08:00.242Z,4.5
2023-04-20T05:09:00.161Z,4.5
2023-04-20T05:10:02.899Z,4.5
2023-04-20T05:11:01.691Z,4.6
2023-04-20T05:12:02.185Z,4.6
2023-04-20T05:13:01.697Z,4.6
2023-04-20T05:14:01.133Z,4.6
2023-04-20T05:15:01.048Z,4.6
2023-04-20T05:16:01.080Z,4.6
2023-04-20T05:17:01.399Z,4.7
2023-04-20T05:18:01.463Z,4.7
2023-04-20T05:19:01.075Z,4.7
2023-04-20T05:20:00.714Z,4.8
2023-04-20T05:21:00.323Z,4.7
2023-04-20T05:21:59.904Z,4.7
2023-04-20T05:23:00.131Z,4.7
2023-04-20T05:23:59.846Z,4.7
2023-04-20T05:25:01.537Z,4.8
2023-04-20T05:26:01.684Z,4.8
2023-04-20T05:27:01.039Z,4.9
2023-04-20T05:28:01.781Z,5
2023-04-20T05:29:01.052Z,5
2023-04-20T05:30:13.126Z,4.9
2023-04-20T05:31:03.930Z,4.9
2023-04-20T05:32:01.623Z,5
2023-04-20T05:33:01.179Z,5
2023-04-20T05:34:01.932Z,5
2023-04-20T05:35:01.837Z,4.9
2023-04-20T05:36:01.036Z,4.9
2023-04-20T05:37:01.021Z,4.8
2023-04-20T05:38:01.216Z,4.8
2023-04-20T05:39:01.417Z,4.9
2023-04-20T05:40:01.842Z,4.9
2023-04-20T05:41:03.057Z,4.9
2023-04-20T05:42:01.011Z,5
2023-04-20T05:43:01.038Z,5
2023-04-20T05:44:01.013Z,5
2023-04-20T05:45:01.013Z,5
2023-04-20T05:46:01.341Z,5
2023-04-20T05:47:00.824Z,5
2023-04-20T05:48:00.424Z,5
2023-04-20T05:49:00.015Z,5
2023-04-20T05:49:59.596Z,5
2023-04-20T05:51:01.757Z,5
2023-04-20T05:52:01.033Z,5
2023-04-20T05:53:01.046Z,5
2023-04-20T05:54:01.014Z,5
2023-04-20T05:55:01.400Z,5
2023-04-20T05:56:01.033Z,5
2023-04-20T05:57:01.144Z,5
2023-04-20T05:58:01.167Z,5
2023-04-20T05:59:01.929Z,4.9
2023-04-20T06:00:02.324Z,5
2023-04-20T06:01:01.083Z,4.9
2023-04-20T06:02:01.131Z,4.9
2023-04-20T06:03:01.174Z,5
2023-04-20T06:04:01.369Z,4.9
2023-04-20T06:05:01.270Z,4.9
2023-04-20T06:06:01.932Z,4.9
2023-04-20T06:07:00.643Z,4.8
2023-04-20T06:08:00.253Z,4.9
2023-04-20T06:08:59.788Z,4.9
2023-04-20T06:10:03.285Z,4.9
2023-04-20T06:11:01.528Z,4.9
2023-04-20T06:12:01.887Z,4.9
2023-04-20T06:13:01.910Z,4.9
2023-04-20T06:14:01.490Z,5
2023-04-20T06:15:06.471Z,5
2023-04-20T06:16:02.039Z,4.9
2023-04-20T06:17:01.847Z,5
2023-04-20T06:18:01.085Z,4.9
2023-04-20T06:19:01.025Z,5
2023-04-20T06:20:09.030Z,4.9
2023-04-20T06:21:01.033Z,4.9
2023-04-20T06:22:01.347Z,4.9
2023-04-20T06:23:01.036Z,4.8
2023-04-20T06:24:01.385Z,4.9
2023-04-20T06:25:11.932Z,4.8
2023-04-20T06:26:01.030Z,4.8
2023-04-20T06:27:01.034Z,4.8
2023-04-20T06:28:01.053Z,4.9
2023-04-20T06:29:01.048Z,4.9
2023-04-20T06:31:01.140Z,4.9
2023-04-20T06:32:01.118Z,4.9
2023-04-20T06:33:01.161Z,5
2023-04-20T06:34:00.609Z,5
2023-04-20T06:35:00.231Z,5
2023-04-20T06:35:59.803Z,4.9
2023-04-20T06:37:01.426Z,4.9
2023-04-20T06:38:01.047Z,5
2023-04-20T06:39:01.414Z,5
2023-04-20T06:40:01.558Z,5
2023-04-20T06:41:01.056Z,5
2023-04-20T06:42:01.062Z,5
2023-04-20T06:43:01.041Z,5
2023-04-20T06:44:01.019Z,5
2023-04-20T06:45:01.077Z,5
2023-04-20T06:46:01.297Z,5.1
2023-04-20T06:47:01.702Z,5.1
2023-04-20T06:48:01.191Z,5.2
2023-04-20T06:49:04.059Z,5.2
2023-04-20T06:50:01.137Z,5.3
2023-04-20T06:51:01.124Z,5.3
2023-04-20T06:52:01.127Z,5.3
2023-04-20T06:53:01.115Z,5.4
2023-04-20T06:54:00.716Z,5.4
2023-04-20T06:55:00.448Z,5.3
2023-04-20T06:56:00.166Z,5.3
2023-04-20T06:56:59.781Z,5.3
2023-04-20T06:58:01.449Z,5.3
2023-04-20T06:59:01.062Z,5.3
2023-04-20T07:00:01.074Z,5.3
2023-04-20T07:01:01.070Z,5.4
2023-04-20T07:02:01.283Z,5.4
2023-04-20T07:03:02.342Z,5.4
2023-04-20T07:04:01.292Z,5.4
2023-04-20T07:05:01.348Z,5.4
2023-04-20T07:06:01.104Z,5.5
2023-04-20T07:07:01.130Z,5.5
2023-04-20T07:08:00.796Z,5.5
2023-04-20T07:09:00.424Z,5.5
2023-04-20T07:10:00.175Z,5.5
2023-04-20T07:10:59.796Z,5.5
2023-04-20T07:12:01.730Z,5.5
2023-04-20T07:13:01.744Z,5.6
2023-04-20T07:14:01.733Z,5.6
2023-04-20T07:15:01.884Z,5.6
2023-04-20T07:16:01.686Z,5.7
2023-04-20T07:17:02.137Z,5.7
2023-04-20T07:18:01.387Z,5.8
2023-04-20T07:19:01.224Z,5.8
2023-04-20T07:20:01.109Z,5.8
2023-04-20T07:21:04.502Z,5.8
2023-04-20T07:22:01.152Z,5.8
2023-04-20T07:23:01.072Z,5.9
2023-04-20T07:24:01.130Z,6
2023-04-20T07:25:01.249Z,6
2023-04-20T07:26:07.393Z,6
2023-04-20T07:27:02.602Z,6.1
2023-04-20T07:28:01.053Z,6.2
2023-04-20T07:29:01.200Z,6.3
2023-04-20T07:30:01.047Z,6.3
2023-04-20T07:31:09.114Z,6.3
2023-04-20T07:32:01.907Z,6.3
2023-04-20T07:33:01.162Z,6.3
2023-04-20T07:34:01.757Z,6.2
2023-04-20T07:35:02.162Z,6.2
2023-04-20T07:36:13.257Z,6.2
2023-04-20T07:37:01.407Z,6.2
2023-04-20T07:38:02.532Z,6.2
2023-04-20T07:39:01.136Z,6.2
2023-04-20T07:40:01.144Z,6.2
2023-04-20T07:41:14.908Z,6.3
2023-04-20T07:42:01.932Z,6.3
2023-04-20T07:43:01.144Z,6.3
2023-04-20T07:44:01.426Z,6.3
2023-04-20T07:45:01.266Z,6.3
2023-04-20T07:46:01.098Z,6.3
2023-04-20T07:47:02.469Z,6.3
2023-04-20T07:48:01.081Z,6.3
2023-04-20T07:49:01.098Z,6.3
2023-04-20T07:50:01.101Z,6.4
2023-04-20T07:51:01.142Z,6.4
2023-04-20T07:52:15.164Z,6.4
2023-04-20T07:53:01.146Z,6.4
2023-04-20T07:54:01.112Z,6.4
2023-04-20T07:55:01.036Z,6.5
2023-04-20T07:56:01.994Z,6.5
2023-04-20T07:57:01.101Z,6.4
2023-04-20T07:58:01.081Z,6.3
2023-04-20T07:59:01.035Z,6.3
2023-04-20T08:00:01.045Z,6.3
2023-04-20T08:01:01.060Z,6.3
2023-04-20T08:02:01.202Z,6.2
2023-04-20T08:03:01.546Z,6.2
2023-04-20T08:04:01.444Z,6.2
2023-04-20T08:05:01.560Z,6.1
2023-04-20T08:06:01.199Z,6.2
2023-04-20T08:07:00.668Z,6.2
2023-04-20T08:08:00.345Z,6.2
2023-04-20T08:08:59.972Z,6.2
2023-04-20T08:09:59.666Z,6.1
2023-04-20T08:11:01.314Z,6.1
2023-04-20T08:12:02.555Z,6.1
2023-04-20T08:13:01.135Z,6.1
2023-04-20T08:14:01.129Z,6.1
2023-04-20T08:15:01.147Z,6.2
2023-04-20T08:16:01.561Z,6.3
2023-04-20T08:17:01.070Z,6.3
2023-04-20T08:18:01.069Z,6.3
2023-04-20T08:19:01.052Z,6.3
2023-04-20T08:20:01.078Z,6.3
2023-04-20T08:21:01.053Z,6.4
2023-04-20T08:22:01.494Z,6.4
2023-04-20T08:23:01.082Z,6.5
2023-04-20T08:24:01.121Z,6.5
2023-04-20T08:25:01.475Z,6.6
2023-04-20T08:26:02.180Z,6.6
2023-04-20T08:27:01.132Z,6.6
2023-04-20T08:28:01.765Z,6.6
2023-04-20T08:29:01.166Z,6.6
2023-04-20T08:30:00.925Z,6.7
2023-04-20T08:31:00.858Z,6.7
2023-04-20T08:32:01.377Z,6.7
2023-04-20T08:33:00.821Z,6.7
2023-04-20T08:34:01.439Z,6.6
2023-04-20T08:35:01.054Z,6.6
2023-04-20T08:36:01.081Z,6.5
2023-04-20T08:37:01.026Z,6.5
2023-04-20T08:38:01.019Z,6.5
2023-04-20T08:39:01.085Z,6.5
2023-04-20T08:40:01.328Z,6.6
2023-04-20T08:41:01.230Z,6.6
2023-04-20T08:42:01.664Z,6.6
2023-04-20T08:43:02.376Z,6.6
2023-04-20T08:44:01.337Z,6.6
2023-04-20T08:45:01.930Z,6.6
2023-04-20T08:46:01.189Z,6.6
2023-04-20T08:47:01.271Z,6.7
2023-04-20T08:48:01.189Z,6.7
2023-04-20T08:49:01.374Z,6.7
2023-04-20T08:50:01.491Z,6.7
2023-04-20T08:51:01.060Z,6.7
2023-04-20T08:52:01.118Z,6.7
2023-04-20T08:53:00.780Z,6.7
2023-04-20T08:54:00.452Z,6.7
2023-04-20T08:55:00.049Z,6.7
2023-04-20T08:55:59.634Z,6.8
2023-04-20T08:57:02.617Z,6.7
2023-04-20T08:58:01.111Z,6.7
2023-04-20T08:59:01.110Z,6.7
2023-04-20T09:00:01.119Z,6.7
2023-04-20T09:01:01.144Z,6.8
2023-04-20T09:02:04.281Z,6.8
2023-04-20T09:03:01.451Z,6.8
2023-04-20T09:04:01.463Z,6.9
2023-04-20T09:05:04.327Z,6.9
2023-04-20T09:06:01.353Z,6.9
2023-04-20T09:07:08.517Z,6.9
2023-04-20T09:08:02.608Z,6.9
2023-04-20T09:09:01.076Z,7
2023-04-20T09:10:01.141Z,7
2023-04-20T09:11:01.796Z,7
2023-04-20T09:12:10.023Z,7
2023-04-20T09:13:01.720Z,7
2023-04-20T09:14:01.295Z,7.1
2023-04-20T09:15:02.269Z,7.1
2023-04-20T09:16:02.104Z,7.1
2023-04-20T09:17:11.370Z,7.1
2023-04-20T09:18:01.535Z,7.2
2023-04-20T09:19:02.927Z,7.1
2023-04-20T09:20:01.710Z,7.1
2023-04-20T09:21:01.031Z,7.1
2023-04-20T09:22:14.546Z,7.1
2023-04-20T09:23:01.023Z,7.1
2023-04-20T09:24:01.372Z,7.2
2023-04-20T09:25:01.368Z,7.3
2023-04-20T09:26:02.404Z,7.3
2023-04-20T09:27:00.604Z,7.4
2023-04-20T09:28:00.291Z,7.5
2023-04-20T09:29:00.268Z,7.5
2023-04-20T09:29:59.961Z,7.5
2023-04-20T09:30:59.734Z,7.6
2023-04-20T09:32:01.434Z,7.6
2023-04-20T09:33:02.655Z,7.6
2023-04-20T09:34:01.118Z,7.7
2023-04-20T09:35:01.415Z,7.8
2023-04-20T09:36:01.032Z,8
2023-04-20T09:37:01.072Z,8
2023-04-20T09:38:01.380Z,8
2023-04-20T09:39:01.356Z,8.1
2023-04-20T09:40:01.355Z,8.1
2023-04-20T09:41:01.469Z,8.1
2023-04-20T09:42:01.072Z,8.1
2023-04-20T09:43:01.098Z,8.2
2023-04-20T09:44:01.092Z,8.1
2023-04-20T09:45:01.094Z,8.1
2023-04-20T09:46:01.113Z,8.2
2023-04-20T09:47:01.108Z,8.2
2023-04-20T09:48:01.258Z,8.3
2023-04-20T09:49:01.125Z,8.3
2023-04-20T09:50:10.280Z,8.3
2023-04-20T09:51:01.025Z,8.4
2023-04-20T09:52:01.045Z,8.5
2023-04-20T09:53:01.200Z,8.5
2023-04-20T09:54:01.025Z,8.6
2023-04-20T09:55:01.049Z,8.6
2023-04-20T09:56:01.079Z,8.6
2023-04-20T09:57:01.067Z,8.7
2023-04-20T09:58:01.456Z,8.8
2023-04-20T09:59:01.199Z,8.8
2023-04-20T10:00:02.146Z,8.8
2023-04-20T10:01:02.812Z,8.8
2023-04-20T10:02:01.235Z,8.8
2023-04-20T10:03:02.697Z,8.8
2023-04-20T10:04:01.231Z,8.9
2023-04-20T10:05:02.551Z,9
2023-04-20T10:06:01.130Z,9
2023-04-20T10:07:01.549Z,9
2023-04-20T10:08:01.508Z,9.1
2023-04-20T10:09:02.275Z,9.1
2023-04-20T10:10:01.042Z,9.1
2023-04-20T10:11:01.052Z,9.1
2023-04-20T10:12:01.075Z,9.2
2023-04-20T10:13:01.072Z,9.2
2023-04-20T10:14:01.039Z,9.3
2023-04-20T10:15:01.130Z,9.3
2023-04-20T10:16:01.085Z,9.3
2023-04-20T10:17:01.288Z,9.3
2023-04-20T10:18:01.496Z,9.3
2023-04-20T10:19:01.526Z,9.4
2023-04-20T10:20:02.539Z,9.5
2023-04-20T10:21:01.214Z,9.5
2023-04-20T10:22:01.127Z,9.5
2023-04-20T10:23:01.124Z,9.6
2023-04-20T10:24:01.042Z,9.6
2023-04-20T10:25:01.042Z,9.6
2023-04-20T10:26:01.332Z,9.6
2023-04-20T10:27:01.049Z,9.6
2023-04-20T10:28:00.746Z,9.5
2023-04-20T10:29:00.347Z,9.5
2023-04-20T10:30:00.031Z,9.4
2023-04-20T10:30:59.811Z,9.3
2023-04-20T10:32:02.090Z,9.3
2023-04-20T10:33:01.097Z,9.3
2023-04-20T10:34:01.094Z,9.3
2023-04-20T10:35:00.790Z,9.3
2023-04-20T10:36:00.375Z,9.3
2023-04-20T10:37:00.096Z,9.3
2023-04-20T10:37:59.798Z,9.3
2023-04-20T10:39:01.535Z,9.3
2023-04-20T10:40:03.138Z,9.4
2023-04-20T10:41:01.261Z,9.4
2023-04-20T10:42:01.054Z,9.5
2023-04-20T10:43:01.047Z,9.5
2023-04-20T10:44:01.064Z,9.6
2023-04-20T10:45:00.736Z,9.7
2023-04-20T10:46:00.395Z,9.8
2023-04-20T10:47:00.058Z,9.8
2023-04-20T10:48:00.926Z,9.8
2023-04-20T10:49:01.490Z,9.7
2023-04-20T10:50:01.088Z,9.6
2023-04-20T10:51:01.113Z,9.6
2023-04-20T10:52:01.105Z,9.6
2023-04-20T10:53:03.553Z,9.6
2023-04-20T10:54:01.124Z,9.5
2023-04-20T10:55:01.338Z,9.5
2023-04-20T10:56:01.201Z,9.5
2023-04-20T10:57:01.056Z,9.5
2023-04-20T10:58:06.670Z,9.5
2023-04-20T10:59:02.339Z,9.4
2023-04-20T11:00:01.742Z,9.4
2023-04-20T11:01:01.275Z,9.4
2023-04-20T11:02:01.737Z,9.4
2023-04-20T11:03:09.430Z,9.5
2023-04-20T11:04:02.029Z,9.5
2023-04-20T11:05:01.246Z,9.5
2023-04-20T11:06:01.926Z,9.5
2023-04-20T11:07:01.147Z,9.6
2023-04-20T11:08:11.902Z,9.6
2023-04-20T11:09:01.509Z,9.6
2023-04-20T11:10:01.048Z,9.6
2023-04-20T11:11:01.045Z,9.6
2023-04-20T11:12:01.055Z,9.6
2023-04-20T11:13:13.791Z,9.6
2023-04-20T11:14:01.866Z,9.6
2023-04-20T11:15:01.733Z,9.5
2023-04-20T11:16:01.118Z,9.5
2023-04-20T11:17:01.412Z,9.6
2023-04-20T11:18:16.373Z,9.6
2023-04-20T11:19:02.152Z,9.6
2023-04-20T11:20:01.107Z,9.6
2023-04-20T11:21:01.023Z,9.7
2023-04-20T11:22:02.228Z,9.8
2023-04-20T11:23:01.113Z,9.8
2023-04-20T11:24:01.116Z,9.8
2023-04-20T11:25:01.107Z,9.8
2023-04-20T11:26:01.117Z,9.8
2023-04-20T11:27:01.137Z,9.8
2023-04-20T11:28:00.829Z,9.8
2023-04-20T11:29:00.453Z,9.8
2023-04-20T11:30:00.123Z,9.9
2023-04-20T11:30:59.810Z,9.9
2023-04-20T11:32:01.864Z,9.9
2023-04-20T11:33:01.809Z,9.9
2023-04-20T11:34:01.759Z,9.9
2023-04-20T11:35:06.501Z,10
2023-04-20T11:36:01.747Z,10
2023-04-20T11:37:01.480Z,10
2023-04-20T11:38:01.460Z,10.1
2023-04-20T11:39:01.098Z,10.1
2023-04-20T11:40:01.103Z,10
2023-04-20T11:41:01.104Z,10
2023-04-20T11:42:01.128Z,10
2023-04-20T11:43:01.122Z,10
2023-04-20T11:44:01.141Z,10
2023-04-20T11:45:01.133Z,10.1
2023-04-20T11:46:01.502Z,10.1
2023-04-20T11:47:01.159Z,10.1
2023-04-20T11:48:01.075Z,10.1
2023-04-20T11:49:01.021Z,10.1
2023-04-20T11:50:01.100Z,10.1
2023-04-20T11:51:01.024Z,10.2
2023-04-20T11:52:01.153Z,10.1
2023-04-20T11:53:01.084Z,10.2
2023-04-20T11:54:01.332Z,10.2
2023-04-20T11:55:01.477Z,10.2
2023-04-20T11:56:02.191Z,10.3
2023-04-20T11:57:01.118Z,10.3
2023-04-20T11:58:01.103Z,10.3
2023-04-20T11:59:01.119Z,10.3
2023-04-20T12:00:01.143Z,10.4
2023-04-20T12:01:02.462Z,10.4
2023-04-20T12:02:01.495Z,10.4
2023-04-20T12:03:01.888Z,10.3
2023-04-20T12:04:02.820Z,10.3
2023-04-20T12:05:01.290Z,10.3
2023-04-20T12:06:01.081Z,10.3
2023-04-20T12:07:01.075Z,10.4
2023-04-20T12:08:01.125Z,10.5
2023-04-20T12:09:01.682Z,10.5
2023-04-20T12:10:01.467Z,10.6
2023-04-20T12:11:01.093Z,10.6
2023-04-20T12:12:01.119Z,10.6
2023-04-20T12:13:01.100Z,10.6
2023-04-20T12:14:01.035Z,10.7
2023-04-20T12:15:01.132Z,10.8
2023-04-20T12:16:01.423Z,10.8
2023-04-20T12:17:01.420Z,10.8
2023-04-20T12:18:01.089Z,10.8
2023-04-20T12:19:01.096Z,10.8
2023-04-20T12:20:01.426Z,10.8
2023-04-20T12:21:01.066Z,10.9
2023-04-20T12:22:01.094Z,11
2023-04-20T12:23:01.104Z,11
2023-04-20T12:24:01.128Z,11
2023-04-20T12:25:01.824Z,11
2023-04-20T12:26:02.135Z,11
2023-04-20T12:27:01.177Z,11.1
2023-04-20T12:28:01.017Z,11.1
2023-04-20T12:29:01.015Z,11.3
2023-04-20T12:30:00.721Z,11.4
2023-04-20T12:31:00.606Z,11.5
2023-04-20T12:32:00.536Z,11.5
2023-04-20T12:33:00.489Z,11.6
2023-04-20T12:34:01.255Z,11.6
2023-04-20T12:35:02.160Z,11.7
2023-04-20T12:36:01.563Z,11.8
2023-04-20T12:37:01.069Z,11.8
2023-04-20T12:38:01.111Z,11.8
2023-04-20T12:39:04.263Z,11.9
2023-04-20T12:40:01.080Z,12
2023-04-20T12:41:01.068Z,12
2023-04-20T12:42:01.142Z,12
2023-04-20T12:43:01.346Z,12
2023-04-20T12:44:16.099Z,12
2023-04-20T12:45:02.261Z,11.9
2023-04-20T12:46:01.135Z,11.8
2023-04-20T12:47:01.194Z,11.8
2023-04-20T12:48:01.088Z,11.8
2023-04-20T12:49:09.199Z,11.8
2023-04-20T12:50:01.459Z,11.9
2023-04-20T12:51:01.863Z,11.9
2023-04-20T12:52:02.593Z,11.8
2023-04-20T12:53:01.283Z,11.8
2023-04-20T12:54:12.363Z,11.8
2023-04-20T12:55:01.097Z,11.7
2023-04-20T12:56:01.754Z,11.7
2023-04-20T12:57:00.468Z,11.8
2023-04-20T12:58:00.397Z,11.7
2023-04-20T12:59:14.060Z,11.7
2023-04-20T13:00:02.080Z,11.8
2023-04-20T13:02:01.642Z,11.8
2023-04-20T13:03:02.238Z,11.8
2023-04-20T13:04:16.761Z,11.8
2023-04-20T13:05:02.568Z,11.9
2023-04-20T13:06:01.026Z,11.9
2023-04-20T13:07:01.033Z,11.9
2023-04-20T13:08:01.039Z,11.9
2023-04-20T13:09:01.089Z,12
2023-04-20T13:10:01.877Z,11.9
2023-04-20T13:11:01.796Z,12
2023-04-20T13:12:01.491Z,12
2023-04-20T13:13:02.128Z,12
2023-04-20T13:14:01.483Z,12
2023-04-20T13:15:01.897Z,12
2023-04-20T13:16:01.144Z,12
2023-04-20T13:17:01.199Z,12
2023-04-20T13:18:01.169Z,12.1
2023-04-20T13:19:01.112Z,12.1
2023-04-20T13:20:01.158Z,12.1
2023-04-20T13:21:01.153Z,12.1
2023-04-20T13:22:01.041Z,12.3
2023-04-20T13:23:01.091Z,12.3
2023-04-20T13:24:01.048Z,12.5
2023-04-20T13:25:01.044Z,12.6
2023-04-20T13:26:01.080Z,12.6
2023-04-20T13:27:01.152Z,12.8
2023-04-20T13:28:01.095Z,12.8
2023-04-20T13:29:01.096Z,12.8
2023-04-20T13:30:01.537Z,12.8
2023-04-20T13:31:01.492Z,12.8
2023-04-20T13:32:01.162Z,12.9
2023-04-20T13:33:01.132Z,13
2023-04-20T13:34:01.106Z,13
2023-04-20T13:35:01.137Z,13
2023-04-20T13:36:01.117Z,13
2023-04-20T13:37:01.057Z,13
2023-04-20T13:38:01.014Z,13
2023-04-20T13:39:01.052Z,13
2023-04-20T13:40:01.478Z,13
2023-04-20T13:41:01.174Z,13.1
2023-04-20T13:42:01.061Z,13.1
2023-04-20T13:43:01.065Z,13.1
2023-04-20T13:44:01.082Z,13.1
2023-04-20T13:45:01.085Z,13.1
2023-04-20T13:46:01.116Z,13.2
2023-04-20T13:47:01.529Z,13.2
2023-04-20T13:48:02.616Z,13.3
2023-04-20T13:49:01.510Z,13.3